createdAt,value
2023-03-29T00:00:28.336Z,65.68
2023-03-29T00:01:35.839Z,65.64
2023-03-29T00:02:29.858Z,65.58
2023-03-29T00:03:28.420Z,65.55
2023-03-29T00:04:28.282Z,65.53
2023-03-29T00:05:28.286Z,65.53
2023-03-29T00:06:28.221Z,65.52
2023-03-29T00:07:29.186Z,65.54
2023-03-29T00:08:28.215Z,65.58
2023-03-29T00:09:28.177Z,65.59
2023-03-29T00:10:28.183Z,65.62
2023-03-29T00:11:28.210Z,65.66
2023-03-29T00:12:29.105Z,65.69
2023-03-29T00:13:28.145Z,65.71
2023-03-29T00:14:28.134Z,65.69
2023-03-29T00:15:28.094Z,65.67
2023-03-29T00:16:28.170Z,65.68
2023-03-29T00:17:28.098Z,65.66
2023-03-29T00:18:29.014Z,65.67
2023-03-29T00:19:28.072Z,65.69
2023-03-29T00:20:28.043Z,65.70
2023-03-29T00:21:28.031Z,65.70
2023-03-29T00:22:28.067Z,65.70
2023-03-29T00:23:28.005Z,65.69
2023-03-29T00:24:28.929Z,65.68
2023-03-29T00:25:27.984Z,65.71
2023-03-29T00:26:27.969Z,65.69
2023-03-29T00:27:28.029Z,65.70
2023-03-29T00:28:27.965Z,65.71
2023-03-29T00:29:28.924Z,65.73
2023-03-29T00:30:27.928Z,65.74
2023-03-29T00:31:27.970Z,65.76
2023-03-29T00:32:27.929Z,65.76
2023-03-29T00:33:27.956Z,65.78
2023-03-29T00:34:27.884Z,65.77
2023-03-29T00:35:28.856Z,65.76
2023-03-29T00:36:27.853Z,65.78
2023-03-29T00:37:27.871Z,65.80
2023-03-29T00:38:27.826Z,65.82
2023-03-29T00:39:27.899Z,65.84
2023-03-29T00:40:27.883Z,65.84
2023-03-29T00:41:28.720Z,65.84
2023-03-29T00:42:27.819Z,65.80
2023-03-29T00:43:27.765Z,65.75
2023-03-29T00:44:27.802Z,65.74
2023-03-29T00:45:27.750Z,65.73
2023-03-29T00:46:28.720Z,65.76
2023-03-29T00:47:27.760Z,65.79
2023-03-29T00:48:27.709Z,65.80
2023-03-29T00:49:27.692Z,65.84
2023-03-29T00:50:27.694Z,65.83
2023-03-29T00:51:27.668Z,65.83
2023-03-29T00:52:28.586Z,65.82
2023-03-29T00:53:27.643Z,65.79
2023-03-29T00:54:27.634Z,65.81
2023-03-29T00:55:27.644Z,65.84
2023-03-29T00:56:27.599Z,65.87
2023-03-29T00:57:27.791Z,65.87
2023-03-29T00:58:28.508Z,65.87
2023-03-29T00:59:27.623Z,65.89
2023-03-29T01:00:27.564Z,65.90
2023-03-29T01:01:27.628Z,65.91
2023-03-29T01:02:27.586Z,65.91
2023-03-29T01:03:27.708Z,65.89
2023-03-29T01:04:28.447Z,65.87
2023-03-29T01:05:27.472Z,65.84
2023-03-29T01:06:27.516Z,65.81
2023-03-29T01:07:27.501Z,65.77
2023-03-29T01:08:27.460Z,65.74
2023-03-29T01:09:27.445Z,65.71
2023-03-29T01:10:28.376Z,65.69
2023-03-29T01:11:27.428Z,65.65
2023-03-29T01:12:27.432Z,65.64
2023-03-29T01:13:27.452Z,65.63
2023-03-29T01:14:27.366Z,65.61
2023-03-29T01:15:28.347Z,65.61
2023-03-29T01:16:27.413Z,65.61
2023-03-29T01:17:27.376Z,65.61
2023-03-29T01:18:27.361Z,65.61
2023-03-29T01:19:27.318Z,65.61
2023-03-29T01:20:27.301Z,65.62
2023-03-29T01:21:28.217Z,65.62
2023-03-29T01:22:27.263Z,65.62
2023-03-29T01:23:27.319Z,65.61
2023-03-29T01:24:27.254Z,65.60
2023-03-29T01:25:27.233Z,65.58
2023-03-29T01:26:28.166Z,65.58
2023-03-29T01:27:27.213Z,65.58
2023-03-29T01:28:27.214Z,65.57
2023-03-29T01:29:27.232Z,65.58
2023-03-29T01:30:27.170Z,65.58
2023-03-29T01:31:28.804Z,65.57
2023-03-29T01:32:27.171Z,65.56
2023-03-29T01:33:27.141Z,65.57
2023-03-29T01:34:27.175Z,65.57
2023-03-29T01:35:27.080Z,65.58
2023-03-29T01:36:27.105Z,65.58
2023-03-29T01:37:28.080Z,65.60
2023-03-29T01:38:28.976Z,65.62
2023-03-29T01:39:27.093Z,65.63
2023-03-29T01:40:27.030Z,65.62
2023-03-29T01:41:27.023Z,65.66
2023-03-29T01:42:27.034Z,65.67
2023-03-29T01:43:27.960Z,65.70
2023-03-29T01:44:26.981Z,65.69
2023-03-29T01:45:26.974Z,65.69
2023-03-29T01:46:27.031Z,65.72
2023-03-29T01:47:26.960Z,65.73
2023-03-29T01:48:27.870Z,65.77
2023-03-29T01:49:26.928Z,65.78
2023-03-29T01:50:26.948Z,65.83
2023-03-29T01:51:26.889Z,65.86
2023-03-29T01:52:26.899Z,65.88
2023-03-29T01:53:26.870Z,65.89
2023-03-29T01:54:27.824Z,65.91
2023-03-29T01:55:26.842Z,65.93
2023-03-29T01:56:26.891Z,65.93
2023-03-29T01:57:26.880Z,65.96
2023-03-29T01:58:26.904Z,65.97
2023-03-29T01:59:27.734Z,65.97
2023-03-29T02:00:26.832Z,65.98
2023-03-29T02:01:26.866Z,66.01
2023-03-29T02:02:26.771Z,66.06
2023-03-29T02:03:26.929Z,66.10
2023-03-29T02:04:27.670Z,66.13
2023-03-29T02:05:26.728Z,66.14
2023-03-29T02:06:26.737Z,66.16
2023-03-29T02:07:26.716Z,66.19
2023-03-29T02:08:26.677Z,66.19
2023-03-29T02:09:26.668Z,66.20
2023-03-29T02:10:27.617Z,66.18
2023-03-29T02:11:26.656Z,66.20
2023-03-29T02:12:26.631Z,66.23
2023-03-29T02:13:26.636Z,66.21
2023-03-29T02:14:26.607Z,66.24
2023-03-29T02:15:27.568Z,66.21
2023-03-29T02:16:26.591Z,66.22
2023-03-29T02:17:26.600Z,66.24
2023-03-29T02:18:26.579Z,66.21
2023-03-29T02:19:26.555Z,66.20
2023-03-29T02:20:27.502Z,66.20
2023-03-29T02:21:26.651Z,66.18
2023-03-29T02:22:26.497Z,66.20
2023-03-29T02:23:26.519Z,66.22
2023-03-29T02:24:26.537Z,66.25
2023-03-29T02:25:26.484Z,66.26
2023-03-29T02:26:27.400Z,66.24
2023-03-29T02:27:26.423Z,66.31
2023-03-29T02:28:26.454Z,66.31
2023-03-29T02:29:26.464Z,66.34
2023-03-29T02:30:26.432Z,66.35
2023-03-29T02:31:27.488Z,66.34
2023-03-29T02:32:26.408Z,66.36
2023-03-29T02:33:26.357Z,66.37
2023-03-29T02:34:26.384Z,66.38
2023-03-29T02:35:26.355Z,66.38
2023-03-29T02:36:27.293Z,66.35
2023-03-29T02:37:26.316Z,66.32
2023-03-29T02:38:26.297Z,66.30
2023-03-29T02:39:26.300Z,66.31
2023-03-29T02:40:26.290Z,66.32
2023-03-29T02:41:26.321Z,66.33
2023-03-29T02:42:27.177Z,66.35
2023-03-29T02:43:26.261Z,66.35
2023-03-29T02:44:26.285Z,66.37
2023-03-29T02:45:26.262Z,66.32
2023-03-29T02:46:26.272Z,66.28
2023-03-29T02:47:27.146Z,66.27
2023-03-29T02:48:26.194Z,66.23
2023-03-29T02:49:26.176Z,66.21
2023-03-29T02:50:26.168Z,66.20
2023-03-29T02:51:26.170Z,66.20
2023-03-29T02:52:27.075Z,66.18
2023-03-29T02:53:26.171Z,66.14
2023-03-29T02:54:26.154Z,66.10
2023-03-29T02:55:26.148Z,66.08
2023-03-29T02:56:26.111Z,66.06
2023-03-29T02:57:27.190Z,66.06
2023-03-29T02:58:26.067Z,66.08
2023-03-29T02:59:26.057Z,66.13
2023-03-29T03:00:26.028Z,66.13
2023-03-29T03:01:26.131Z,66.13
2023-03-29T03:02:26.079Z,66.17
2023-03-29T03:03:26.990Z,66.18
2023-03-29T03:04:26.037Z,66.17
2023-03-29T03:05:25.976Z,66.17
2023-03-29T03:06:25.993Z,66.14
2023-03-29T03:07:25.988Z,66.13
2023-03-29T03:08:26.875Z,66.12
2023-03-29T03:09:25.925Z,66.09
2023-03-29T03:10:25.943Z,66.07
2023-03-29T03:11:25.911Z,66.05
2023-03-29T03:12:25.926Z,66.06
2023-03-29T03:13:26.817Z,66.04
2023-03-29T03:14:25.856Z,66.06
2023-03-29T03:15:25.859Z,66.07
2023-03-29T03:16:25.863Z,66.08
2023-03-29T03:17:25.878Z,66.12
2023-03-29T03:18:26.750Z,66.15
2023-03-29T03:19:25.848Z,66.16
2023-03-29T03:20:25.789Z,66.18
2023-03-29T03:21:25.764Z,66.21
2023-03-29T03:22:25.800Z,66.26
2023-03-29T03:23:25.747Z,66.28
2023-03-29T03:24:26.691Z,66.25
2023-03-29T03:25:25.725Z,66.23
2023-03-29T03:26:25.724Z,66.24
2023-03-29T03:27:25.697Z,66.26
2023-03-29T03:28:25.701Z,66.29
2023-03-29T03:29:26.617Z,66.30
2023-03-29T03:30:25.695Z,66.35
2023-03-29T03:31:25.712Z,66.38
2023-03-29T03:32:25.682Z,66.38
2023-03-29T03:33:25.605Z,66.37
2023-03-29T03:34:25.621Z,66.37
2023-03-29T03:35:26.534Z,66.36
2023-03-29T03:36:25.575Z,66.38
2023-03-29T03:37:25.593Z,66.38
2023-03-29T03:38:25.655Z,66.37
2023-03-29T03:39:25.568Z,66.35
2023-03-29T03:40:26.598Z,66.33
2023-03-29T03:41:26.552Z,66.35
2023-03-29T03:42:25.529Z,66.29
2023-03-29T03:43:25.543Z,66.29
2023-03-29T03:44:25.481Z,66.29
2023-03-29T03:45:25.469Z,66.28
2023-03-29T03:46:26.691Z,66.28
2023-03-29T03:47:26.415Z,66.30
2023-03-29T03:48:25.438Z,66.28
2023-03-29T03:49:25.417Z,66.26
2023-03-29T03:50:25.406Z,66.23
2023-03-29T03:51:25.417Z,66.24
2023-03-29T03:52:25.361Z,66.21
2023-03-29T03:53:26.341Z,66.19
2023-03-29T03:54:25.405Z,66.22
2023-03-29T03:55:25.337Z,66.19
2023-03-29T03:56:25.352Z,66.17
2023-03-29T03:57:25.391Z,66.15
2023-03-29T03:58:26.267Z,66.14
2023-03-29T03:59:25.316Z,66.14
2023-03-29T04:00:25.284Z,66.14
2023-03-29T04:01:25.279Z,66.14
2023-03-29T04:02:25.350Z,66.16
2023-03-29T04:03:25.272Z,66.09
2023-03-29T04:04:26.198Z,66.07
2023-03-29T04:05:25.214Z,66.08
2023-03-29T04:06:25.222Z,66.09
2023-03-29T04:07:25.246Z,66.08
2023-03-29T04:08:25.197Z,66.11
2023-03-29T04:09:25.151Z,66.15
2023-03-29T04:10:26.114Z,66.14
2023-03-29T04:11:25.187Z,66.12
2023-03-29T04:12:25.159Z,66.13
2023-03-29T04:13:25.128Z,66.14
2023-03-29T04:14:25.113Z,66.14
2023-03-29T04:15:25.098Z,66.12
2023-03-29T04:16:26.133Z,66.10
2023-03-29T04:17:25.100Z,66.09
2023-03-29T04:18:25.159Z,66.10
2023-03-29T04:19:25.017Z,66.08
2023-03-29T04:20:25.040Z,66.07
2023-03-29T04:21:25.017Z,66.09
2023-03-29T04:22:25.997Z,66.11
2023-03-29T04:23:25.052Z,66.11
2023-03-29T04:24:25.003Z,66.10
2023-03-29T04:25:24.977Z,66.08
2023-03-29T04:26:24.929Z,66.09
2023-03-29T04:27:24.946Z,66.10
2023-03-29T04:28:25.920Z,66.12
2023-03-29T04:29:24.903Z,66.15
2023-03-29T04:30:24.998Z,66.16
2023-03-29T04:31:24.972Z,66.21
2023-03-29T04:32:24.928Z,66.21
2023-03-29T04:33:24.887Z,66.23
2023-03-29T04:34:25.824Z,66.25
2023-03-29T04:35:24.826Z,66.26
2023-03-29T04:36:24.854Z,66.25
2023-03-29T04:37:24.824Z,66.27
2023-03-29T04:38:24.820Z,66.28
2023-03-29T04:39:24.805Z,66.27
2023-03-29T04:40:25.708Z,66.24
2023-03-29T04:41:24.754Z,66.19
2023-03-29T04:42:24.742Z,66.16
2023-03-29T04:43:24.775Z,66.18
2023-03-29T04:44:24.744Z,66.15
2023-03-29T04:45:24.739Z,66.15
2023-03-29T04:46:25.696Z,66.15
2023-03-29T04:47:24.741Z,66.11
2023-03-29T04:48:24.686Z,66.02
2023-03-29T04:49:26.095Z,65.96
2023-03-29T04:50:24.644Z,65.88
2023-03-29T04:51:24.645Z,65.90
2023-03-29T04:52:25.577Z,65.89
2023-03-29T04:53:24.605Z,65.86
2023-03-29T04:54:24.595Z,65.85
2023-03-29T04:55:24.620Z,65.85
2023-03-29T04:56:24.586Z,65.86
2023-03-29T04:57:24.749Z,65.86
2023-03-29T04:58:29.557Z,65.86
2023-03-29T04:59:26.053Z,65.87
2023-03-29T05:00:24.547Z,65.85
2023-03-29T05:01:24.536Z,65.86
2023-03-29T05:02:24.659Z,65.84
2023-03-29T05:03:24.515Z,65.81
2023-03-29T05:04:25.432Z,65.78
2023-03-29T05:05:24.450Z,65.76
2023-03-29T05:06:24.462Z,65.71
2023-03-29T05:07:24.493Z,65.66
2023-03-29T05:08:24.418Z,65.62
2023-03-29T05:09:25.372Z,65.56
2023-03-29T05:10:24.450Z,65.50
2023-03-29T05:11:24.425Z,65.44
2023-03-29T05:12:24.377Z,65.32
2023-03-29T05:13:24.387Z,65.23
2023-03-29T05:14:25.263Z,65.22
2023-03-29T05:15:24.324Z,65.25
2023-03-29T05:16:24.430Z,65.26
2023-03-29T05:17:24.317Z,65.24
2023-03-29T05:18:24.315Z,65.23
2023-03-29T05:19:25.287Z,65.22
2023-03-29T05:20:24.304Z,65.18
2023-03-29T05:21:24.249Z,65.15
2023-03-29T05:22:24.243Z,65.09
2023-03-29T05:23:24.251Z,65.04
2023-03-29T05:24:25.159Z,64.99
2023-03-29T05:25:24.189Z,64.94
2023-03-29T05:26:24.195Z,64.88
2023-03-29T05:27:24.178Z,64.81
2023-03-29T05:28:24.203Z,64.72
2023-03-29T05:29:25.082Z,64.68
2023-03-29T05:30:24.143Z,64.61
2023-03-29T05:31:24.175Z,64.53
2023-03-29T05:32:24.195Z,64.49
2023-03-29T05:33:24.132Z,64.42
2023-03-29T05:34:24.086Z,64.41
2023-03-29T05:35:25.017Z,64.38
2023-03-29T05:36:24.052Z,64.38
2023-03-29T05:37:24.059Z,64.31
2023-03-29T05:38:24.059Z,64.30
2023-03-29T05:39:24.030Z,64.31
2023-03-29T05:40:24.003Z,64.32
2023-03-29T05:41:24.934Z,64.30
2023-03-29T05:42:24.016Z,64.30
2023-03-29T05:43:23.995Z,64.27
2023-03-29T05:44:23.969Z,64.25
2023-03-29T05:45:24.028Z,64.20
2023-03-29T05:46:24.870Z,64.17
2023-03-29T05:47:23.960Z,64.13
2023-03-29T05:48:23.944Z,64.02
2023-03-29T05:49:23.919Z,63.94
2023-03-29T05:50:23.869Z,63.90
2023-03-29T05:51:24.812Z,63.86
2023-03-29T05:52:23.870Z,63.79
2023-03-29T05:53:23.894Z,63.73
2023-03-29T05:54:23.825Z,63.72
2023-03-29T05:55:23.826Z,63.72
2023-03-29T05:56:24.853Z,63.66
2023-03-29T05:57:24.116Z,63.63
2023-03-29T05:58:23.904Z,63.60
2023-03-29T05:59:23.785Z,63.57
2023-03-29T06:00:24.062Z,63.59
2023-03-29T06:01:23.744Z,63.64
2023-03-29T06:02:24.820Z,63.64
2023-03-29T06:03:23.859Z,63.63
2023-03-29T06:04:23.841Z,63.63
2023-03-29T06:05:23.728Z,63.65
2023-03-29T06:06:23.713Z,63.65
2023-03-29T06:07:24.632Z,63.55
2023-03-29T06:08:23.754Z,63.40
2023-03-29T06:09:23.654Z,63.31
2023-03-29T06:10:23.620Z,63.27
2023-03-29T06:11:23.749Z,63.23
2023-03-29T06:12:23.610Z,63.17
2023-03-29T06:13:24.558Z,63.11
2023-03-29T06:14:23.571Z,63.05
2023-03-29T06:15:23.563Z,63.00
2023-03-29T06:16:23.591Z,62.94
2023-03-29T06:17:23.579Z,62.88
2023-03-29T06:18:24.490Z,62.81
2023-03-29T06:19:23.541Z,62.74
2023-03-29T06:20:23.501Z,62.69
2023-03-29T06:21:23.489Z,62.59
2023-03-29T06:22:23.472Z,62.54
2023-03-29T06:23:24.416Z,62.48
2023-03-29T06:24:23.471Z,62.44
2023-03-29T06:25:23.459Z,62.46
2023-03-29T06:26:23.461Z,62.46
2023-03-29T06:27:23.482Z,62.37
2023-03-29T06:28:24.333Z,62.34
2023-03-29T06:29:23.422Z,62.31
2023-03-29T06:30:23.396Z,62.30
2023-03-29T06:31:23.438Z,62.29
2023-03-29T06:32:23.424Z,62.28
2023-03-29T06:33:24.279Z,62.28
2023-03-29T06:34:23.337Z,62.29
2023-03-29T06:35:23.299Z,62.27
2023-03-29T06:36:23.317Z,62.23
2023-03-29T06:37:23.347Z,62.22
2023-03-29T06:38:23.509Z,62.18
2023-03-29T06:39:24.202Z,62.12
2023-03-29T06:40:23.253Z,62.10
2023-03-29T06:41:23.250Z,62.06
2023-03-29T06:42:23.252Z,62.00
2023-03-29T06:43:23.217Z,61.95
2023-03-29T06:44:24.111Z,61.93
2023-03-29T06:45:24.695Z,61.93
2023-03-29T06:46:23.193Z,61.88
2023-03-29T06:47:23.164Z,61.88
2023-03-29T06:48:23.157Z,61.90
2023-03-29T06:49:24.068Z,61.89
2023-03-29T06:50:23.119Z,61.88
2023-03-29T06:51:23.470Z,61.87
2023-03-29T06:52:23.085Z,61.84
2023-03-29T06:53:23.099Z,61.83
2023-03-29T06:54:23.990Z,61.79
2023-03-29T06:55:23.041Z,61.73
2023-03-29T06:56:23.091Z,61.65
2023-03-29T06:57:23.098Z,61.61
2023-03-29T06:58:23.065Z,61.53
2023-03-29T06:59:23.948Z,61.45
2023-03-29T07:00:23.012Z,61.35
2023-03-29T07:01:23.021Z,61.29
2023-03-29T07:02:22.964Z,61.26
2023-03-29T07:03:22.951Z,61.17
2023-03-29T07:04:23.860Z,61.15
2023-03-29T07:05:22.932Z,61.12
2023-03-29T07:06:22.947Z,61.11
2023-03-29T07:07:22.911Z,61.12
2023-03-29T07:08:22.912Z,61.14
2023-03-29T07:09:22.892Z,61.18
2023-03-29T07:10:23.779Z,61.22
2023-03-29T07:11:22.877Z,61.23
2023-03-29T07:12:22.848Z,61.22
2023-03-29T07:13:22.830Z,61.13
2023-03-29T07:14:22.796Z,61.00
2023-03-29T07:15:23.724Z,60.94
2023-03-29T07:16:22.893Z,60.86
2023-03-29T07:17:22.857Z,60.73
2023-03-29T07:18:22.894Z,60.63
2023-03-29T07:19:22.803Z,60.54
2023-03-29T07:20:22.785Z,60.42
2023-03-29T07:21:23.651Z,60.36
2023-03-29T07:22:22.705Z,60.29
2023-03-29T07:23:22.728Z,60.22
2023-03-29T07:24:22.689Z,60.15
2023-03-29T07:25:22.657Z,60.08
2023-03-29T07:26:28.616Z,60.04
2023-03-29T07:27:25.085Z,59.99
2023-03-29T07:28:22.672Z,59.95
2023-03-29T07:29:22.633Z,59.90
2023-03-29T07:30:22.583Z,59.84
2023-03-29T07:31:22.589Z,59.82
2023-03-29T07:32:22.648Z,59.84
2023-03-29T07:33:23.545Z,59.75
2023-03-29T07:34:22.571Z,59.64
2023-03-29T07:35:22.543Z,59.55
2023-03-29T07:36:22.601Z,59.49
2023-03-29T07:37:22.536Z,59.41
2023-03-29T07:38:22.494Z,59.36
2023-03-29T07:39:23.453Z,59.32
2023-03-29T07:40:22.499Z,59.27
2023-03-29T07:41:22.683Z,59.24
2023-03-29T07:42:22.458Z,59.14
2023-03-29T07:43:22.417Z,59.09
2023-03-29T07:44:23.383Z,59.02
2023-03-29T07:45:26.691Z,59.06
2023-03-29T07:46:23.993Z,59.01
2023-03-29T07:47:22.366Z,58.91
2023-03-29T07:48:22.358Z,58.86
2023-03-29T07:49:22.366Z,58.82
2023-03-29T07:50:23.513Z,58.73
2023-03-29T07:51:22.337Z,58.65
2023-03-29T07:52:22.322Z,58.60
2023-03-29T07:53:22.347Z,58.53
2023-03-29T07:54:22.432Z,58.46
2023-03-29T07:55:23.262Z,58.42
2023-03-29T07:56:22.324Z,58.42
2023-03-29T07:57:22.367Z,58.46
2023-03-29T07:58:22.261Z,58.47
2023-03-29T07:59:22.215Z,58.47
2023-03-29T08:00:23.281Z,58.45
2023-03-29T08:01:22.260Z,58.42
2023-03-29T08:02:22.307Z,58.30
2023-03-29T08:03:22.292Z,58.18
2023-03-29T08:04:22.263Z,58.08
2023-03-29T08:05:37.931Z,58.00
2023-03-29T08:06:24.566Z,57.94
2023-03-29T08:07:22.139Z,57.90
2023-03-29T08:08:22.233Z,57.85
2023-03-29T08:09:22.110Z,57.82
2023-03-29T08:10:22.173Z,57.80
2023-03-29T08:11:23.008Z,57.80
2023-03-29T08:12:24.482Z,57.80
2023-03-29T08:13:22.047Z,57.75
2023-03-29T08:14:22.110Z,57.62
2023-03-29T08:15:22.017Z,57.53
2023-03-29T08:16:22.976Z,57.49
2023-03-29T08:17:21.977Z,57.48
2023-03-29T08:18:22.008Z,57.47
2023-03-29T08:19:22.016Z,57.45
2023-03-29T08:20:21.997Z,57.39
2023-03-29T08:21:23.004Z,57.38
2023-03-29T08:22:21.977Z,57.40
2023-03-29T08:23:21.943Z,57.35
2023-03-29T08:24:21.923Z,57.29
2023-03-29T08:25:21.935Z,57.27
2023-03-29T08:26:21.910Z,57.25
2023-03-29T08:27:22.821Z,57.34
2023-03-29T08:28:21.848Z,57.41
2023-03-29T08:29:21.870Z,57.44
2023-03-29T08:30:21.876Z,57.39
2023-03-29T08:31:21.819Z,57.45
2023-03-29T08:32:22.748Z,57.57
2023-03-29T08:33:21.855Z,57.75
2023-03-29T08:34:21.789Z,57.87
2023-03-29T08:35:21.780Z,57.90
2023-03-29T08:36:21.736Z,57.79
2023-03-29T08:37:22.728Z,57.60
2023-03-29T08:38:21.734Z,57.42
2023-03-29T08:39:22.685Z,57.04
2023-03-29T08:40:21.692Z,56.94
2023-03-29T08:41:21.699Z,56.64
2023-03-29T08:42:21.703Z,56.54
2023-03-29T08:43:22.624Z,56.33
2023-03-29T08:44:21.650Z,56.31
2023-03-29T08:45:21.662Z,56.32
2023-03-29T08:46:21.678Z,56.33
2023-03-29T08:47:21.689Z,56.45
2023-03-29T08:48:21.598Z,56.52
2023-03-29T08:49:22.577Z,56.51
2023-03-29T08:50:21.561Z,56.34
2023-03-29T08:51:21.571Z,56.06
2023-03-29T08:52:21.607Z,55.73
2023-03-29T08:53:21.530Z,55.32
2023-03-29T08:54:21.529Z,55.17
2023-03-29T08:55:22.454Z,55.22
2023-03-29T08:56:21.517Z,55.02
2023-03-29T08:57:21.546Z,54.66
2023-03-29T08:58:21.461Z,54.75
2023-03-29T08:59:21.478Z,54.85
2023-03-29T09:00:21.432Z,54.89
2023-03-29T09:01:22.412Z,54.84
2023-03-29T09:02:21.691Z,54.84
2023-03-29T09:03:21.519Z,54.80
2023-03-29T09:04:21.386Z,54.39
2023-03-29T09:05:21.397Z,54.38
2023-03-29T09:06:21.404Z,54.00
2023-03-29T09:07:24.627Z,53.43
2023-03-29T09:08:21.391Z,53.19
2023-03-29T09:09:21.333Z,53.10
2023-03-29T09:10:21.321Z,52.94
2023-03-29T09:11:21.412Z,52.82
2023-03-29T09:12:22.217Z,52.73
2023-03-29T09:13:21.288Z,53.03
2023-03-29T09:14:21.251Z,53.51
2023-03-29T09:15:21.240Z,53.90
2023-03-29T09:16:21.605Z,54.30
2023-03-29T09:17:22.221Z,54.70
2023-03-29T09:18:21.262Z,54.91
2023-03-29T09:19:21.308Z,54.90
2023-03-29T09:20:21.200Z,55.13
2023-03-29T09:21:21.182Z,55.36
2023-03-29T09:22:21.140Z,55.12
2023-03-29T09:23:22.114Z,54.97
2023-03-29T09:24:21.173Z,54.75
2023-03-29T09:25:21.123Z,54.35
2023-03-29T09:26:21.118Z,54.22
2023-03-29T09:27:21.081Z,54.11
2023-03-29T09:28:21.088Z,54.15
2023-03-29T09:29:21.994Z,54.28
2023-03-29T09:30:21.054Z,54.04
2023-03-29T09:31:21.062Z,53.45
2023-03-29T09:32:21.012Z,53.02
2023-03-29T09:33:21.040Z,52.71
2023-03-29T09:34:21.203Z,52.53
2023-03-29T09:35:21.924Z,52.42
2023-03-29T09:36:20.983Z,52.70
2023-03-29T09:37:20.961Z,53.35
2023-03-29T09:38:20.994Z,53.80
2023-03-29T09:39:20.912Z,53.97
2023-03-29T09:40:20.956Z,53.85
2023-03-29T09:41:21.836Z,53.98
2023-03-29T09:42:20.912Z,53.88
2023-03-29T09:43:20.959Z,53.68
2023-03-29T09:44:30.339Z,53.59
2023-03-29T09:45:22.364Z,53.42
2023-03-29T09:46:20.875Z,53.20
2023-03-29T09:47:21.747Z,52.88
2023-03-29T09:48:20.884Z,52.59
2023-03-29T09:49:22.504Z,52.38
2023-03-29T09:50:30.977Z,52.42
2023-03-29T09:51:22.286Z,52.43
2023-03-29T09:52:21.720Z,52.40
2023-03-29T09:53:20.792Z,52.07
2023-03-29T09:54:20.743Z,51.97
2023-03-29T09:55:20.747Z,51.62
2023-03-29T09:56:20.741Z,51.40
2023-03-29T09:57:21.773Z,51.03
2023-03-29T09:58:20.792Z,50.87
2023-03-29T09:59:20.707Z,50.66
2023-03-29T10:00:20.649Z,50.47
2023-03-29T10:01:20.661Z,50.56
2023-03-29T10:02:21.711Z,50.41
2023-03-29T10:03:20.719Z,50.04
2023-03-29T10:04:20.649Z,50.56
2023-03-29T10:05:20.622Z,51.60
2023-03-29T10:06:20.678Z,52.46
2023-03-29T10:07:21.541Z,52.88
2023-03-29T10:08:20.566Z,52.78
2023-03-29T10:09:20.542Z,51.81
2023-03-29T10:10:20.520Z,51.53
2023-03-29T10:11:20.623Z,51.74
2023-03-29T10:12:20.568Z,51.27
2023-03-29T10:13:21.426Z,50.50
2023-03-29T10:14:20.506Z,49.84
2023-03-29T10:15:29.406Z,49.37
2023-03-29T10:16:22.017Z,50.36
2023-03-29T10:17:20.468Z,49.82
2023-03-29T10:18:21.382Z,50.10
2023-03-29T10:19:20.422Z,50.95
2023-03-29T10:20:21.339Z,51.60
2023-03-29T10:21:20.449Z,50.74
2023-03-29T10:22:20.399Z,51.24
2023-03-29T10:23:20.359Z,51.30
2023-03-29T10:24:21.309Z,51.76
2023-03-29T10:25:20.329Z,52.10
2023-03-29T10:26:20.356Z,51.43
2023-03-29T10:27:20.347Z,49.95
2023-03-29T10:28:20.338Z,48.88
2023-03-29T10:29:21.330Z,48.02
2023-03-29T10:30:20.296Z,47.52
2023-03-29T10:31:20.282Z,47.35
2023-03-29T10:32:20.275Z,47.37
2023-03-29T10:33:20.277Z,46.97
2023-03-29T10:34:20.232Z,46.80
2023-03-29T10:35:21.128Z,46.36
2023-03-29T10:36:20.244Z,46.84
2023-03-29T10:37:20.206Z,47.73
2023-03-29T10:38:21.142Z,48.52
2023-03-29T10:39:20.190Z,49.38
2023-03-29T10:40:20.130Z,50.49
2023-03-29T10:41:21.094Z,51.51
2023-03-29T10:42:20.137Z,52.08
2023-03-29T10:43:20.118Z,52.41
2023-03-29T10:44:20.149Z,52.56
2023-03-29T10:45:20.078Z,52.44
2023-03-29T10:46:20.085Z,52.44
2023-03-29T10:47:21.036Z,52.69
2023-03-29T10:48:20.066Z,52.92
2023-03-29T10:49:20.070Z,52.93
2023-03-29T10:50:20.026Z,52.67
2023-03-29T10:51:20.032Z,52.69
2023-03-29T10:52:19.983Z,52.77
2023-03-29T10:53:20.915Z,52.77
2023-03-29T10:54:20.024Z,52.78
2023-03-29T10:55:19.969Z,52.82
2023-03-29T10:56:19.966Z,53.21
2023-03-29T10:57:22.722Z,53.41
2023-03-29T10:58:19.895Z,53.36
2023-03-29T10:59:20.845Z,53.22
2023-03-29T11:00:19.902Z,52.86
2023-03-29T11:01:19.912Z,52.77
2023-03-29T11:02:19.925Z,53.21
2023-03-29T11:03:21.573Z,53.82
2023-03-29T11:04:19.854Z,54.12
2023-03-29T11:05:20.765Z,53.70
2023-03-29T11:06:19.788Z,53.06
2023-03-29T11:07:19.795Z,52.54
2023-03-29T11:08:19.788Z,52.41
2023-03-29T11:09:19.793Z,52.62
2023-03-29T11:10:19.757Z,53.05
2023-03-29T11:11:20.663Z,53.41
2023-03-29T11:12:20.001Z,53.43
2023-03-29T11:13:19.731Z,53.02
2023-03-29T11:14:19.699Z,52.32
2023-03-29T11:15:19.829Z,51.92
2023-03-29T11:16:19.811Z,51.96
2023-03-29T11:17:20.750Z,51.65
2023-03-29T11:18:19.665Z,51.87
2023-03-29T11:19:19.636Z,52.13
2023-03-29T11:20:19.643Z,52.33
2023-03-29T11:21:19.600Z,52.51
2023-03-29T11:22:20.539Z,52.78
2023-03-29T11:23:19.595Z,53.24
2023-03-29T11:24:19.583Z,53.53
2023-03-29T11:25:19.614Z,53.42
2023-03-29T11:26:19.562Z,52.94
2023-03-29T11:27:19.536Z,52.46
2023-03-29T11:28:20.448Z,51.67
2023-03-29T11:29:19.717Z,50.87
2023-03-29T11:30:19.493Z,50.55
2023-03-29T11:31:19.524Z,50.43
2023-03-29T11:32:19.470Z,50.11
2023-03-29T11:33:20.387Z,49.30
2023-03-29T11:34:19.470Z,48.17
2023-03-29T11:35:19.433Z,46.94
2023-03-29T11:36:19.444Z,46.25
2023-03-29T11:37:19.449Z,45.87
2023-03-29T11:38:20.338Z,45.77
2023-03-29T11:39:19.363Z,45.99
2023-03-29T11:40:19.346Z,46.20
2023-03-29T11:41:19.369Z,46.07
2023-03-29T11:42:19.347Z,46.43
2023-03-29T11:43:20.282Z,47.29
2023-03-29T11:44:19.305Z,48.13
2023-03-29T11:45:19.287Z,49.02
2023-03-29T11:46:19.342Z,49.55
2023-03-29T11:47:19.253Z,49.59
2023-03-29T11:48:19.260Z,49.38
2023-03-29T11:49:20.300Z,48.98
2023-03-29T11:50:19.217Z,48.55
2023-03-29T11:51:19.281Z,48.06
2023-03-29T11:52:19.206Z,47.71
2023-03-29T11:53:19.211Z,47.44
2023-03-29T11:54:19.205Z,47.32
2023-03-29T11:55:20.090Z,47.42
2023-03-29T11:56:19.143Z,47.34
2023-03-29T11:57:19.220Z,46.98
2023-03-29T11:58:19.135Z,46.21
2023-03-29T11:59:19.158Z,45.37
2023-03-29T12:00:19.093Z,44.86
2023-03-29T12:01:20.025Z,44.61
2023-03-29T12:02:19.140Z,44.41
2023-03-29T12:03:19.141Z,44.33
2023-03-29T12:04:19.066Z,44.36
2023-03-29T12:05:19.012Z,44.73
2023-03-29T12:06:19.950Z,45.67
2023-03-29T12:07:19.027Z,46.39
2023-03-29T12:08:19.024Z,47.08
2023-03-29T12:09:19.025Z,47.66
2023-03-29T12:10:18.954Z,48.30
2023-03-29T12:11:19.896Z,49.05
2023-03-29T12:12:18.941Z,49.58
2023-03-29T12:13:18.935Z,49.70
2023-03-29T12:14:18.928Z,49.63
2023-03-29T12:15:18.897Z,50.09
2023-03-29T12:16:19.892Z,50.86
2023-03-29T12:17:18.859Z,51.77
2023-03-29T12:18:18.880Z,52.49
2023-03-29T12:19:18.886Z,53.08
2023-03-29T12:20:18.843Z,53.37
2023-03-29T12:21:18.814Z,53.67
2023-03-29T12:22:19.768Z,54.07
2023-03-29T12:23:18.812Z,54.55
2023-03-29T12:24:18.819Z,54.72
2023-03-29T12:25:20.216Z,54.49
2023-03-29T12:26:18.743Z,54.15
2023-03-29T12:27:18.748Z,54.06
2023-03-29T12:28:19.690Z,54.10
2023-03-29T12:29:18.740Z,54.22
2023-03-29T12:30:18.689Z,54.39
2023-03-29T12:31:18.754Z,54.53
2023-03-29T12:32:18.714Z,54.61
2023-03-29T12:33:18.739Z,54.60
2023-03-29T12:34:19.585Z,54.63
2023-03-29T12:35:18.685Z,54.78
2023-03-29T12:36:18.716Z,55.02
2023-03-29T12:37:18.662Z,55.40
2023-03-29T12:38:18.779Z,55.71
2023-03-29T12:39:18.578Z,56.02
2023-03-29T12:40:19.518Z,56.33
2023-03-29T12:41:18.580Z,56.52
2023-03-29T12:42:18.565Z,56.59
2023-03-29T12:43:18.551Z,56.55
2023-03-29T12:44:18.528Z,56.48
2023-03-29T12:45:19.601Z,56.43
2023-03-29T12:46:18.601Z,56.38
2023-03-29T12:47:18.494Z,56.32
2023-03-29T12:48:18.473Z,56.23
2023-03-29T12:49:19.885Z,56.11
2023-03-29T12:50:19.372Z,55.99
2023-03-29T12:51:18.420Z,55.95
2023-03-29T12:52:18.406Z,55.96